Alta Airport


Codes: ENAT/ALF
Name: Alta Airport
City: Alta
Country: Norway
Elevation: 9 ft.
Wikipedia:

Photos at Alta Airport


   Photos courtesy of SpottingLog. You can add your own sightings and photos by signing up for a free trial today.



No photos found.

Weather at Alta Airport


Time (UTC)DescriptionTempratureWindCloud coverageVisibilityPressureHumidity
25-Jun-2024 21:00Scattered Clouds17°C7 mph, NW40%10000m1005hPa72%
26-Jun-2024 00:00Light Rain15°C7 mph, W60%10000m1007hPa77%
26-Jun-2024 03:00Broken Clouds13°C13 mph, W72%10000m1010hPa70%
26-Jun-2024 06:00Overcast Clouds12°C20 mph, W91%10000m1014hPa60%
26-Jun-2024 09:00Broken Clouds13°C11 mph, NW74%10000m1014hPa59%
26-Jun-2024 12:00Broken Clouds14°C18 mph, NW76%10000m1015hPa54%
26-Jun-2024 15:00Broken Clouds13°C7 mph, NW57%10000m1015hPa61%
26-Jun-2024 18:00Broken Clouds12°C9 mph, W68%10000m1016hPa64%
26-Jun-2024 21:00Broken Clouds11°C4 mph, SW80%10000m1017hPa67%
27-Jun-2024 00:00Broken Clouds10°C4 mph, SW58%10000m1017hPa70%
27-Jun-2024 03:00Broken Clouds10°C2 mph, SW54%10000m1016hPa70%
27-Jun-2024 06:00Scattered Clouds12°C2 mph, W47%10000m1016hPa62%
27-Jun-2024 09:00Few Clouds14°C7 mph, NW11%10000m1015hPa51%
27-Jun-2024 12:00Few Clouds12°C9 mph, N11%10000m1016hPa62%
27-Jun-2024 15:00Clear Sky13°C9 mph, N7%10000m1016hPa62%
27-Jun-2024 18:00Few Clouds12°C7 mph, N11%10000m1016hPa67%
27-Jun-2024 21:00Few Clouds10°C7 mph, NW11%10000m1016hPa73%
28-Jun-2024 00:00Few Clouds10°C2 mph, NW21%10000m1015hPa77%
28-Jun-2024 03:00Few Clouds11°C2 mph, E11%10000m1014hPa72%
28-Jun-2024 06:00Broken Clouds13°C0 mph, W55%10000m1012hPa67%
28-Jun-2024 09:00Overcast Clouds14°C2 mph, NW100%10000m1010hPa64%
28-Jun-2024 12:00Overcast Clouds15°C7 mph, N99%10000m1008hPa71%
28-Jun-2024 15:00Light Rain18°C9 mph, NW80%10000m1005hPa66%
28-Jun-2024 18:00Light Rain17°C7 mph, N62%10000m1004hPa73%
28-Jun-2024 21:00Light Rain15°C7 mph, N84%10000m1003hPa82%
29-Jun-2024 00:00Light Rain14°C2 mph, E88%10000m1002hPa88%
29-Jun-2024 03:00Overcast Clouds14°C4 mph, SE90%10000m999hPa91%
29-Jun-2024 06:00Light Rain14°C7 mph, SE95%10000m998hPa91%
29-Jun-2024 09:00Light Rain14°C4 mph, SE100%8549m996hPa93%
29-Jun-2024 12:00Moderate Rain15°C4 mph, NE100%4844m994hPa98%
29-Jun-2024 15:00Heavy Intensity Rain12°C9 mph, NW100%5756m996hPa94%
29-Jun-2024 18:00Moderate Rain12°C9 mph, N100%9534m998hPa95%
29-Jun-2024 21:00Light Rain9°C11 mph, N100%10000m1002hPa94%
30-Jun-2024 00:00Light Rain9°C9 mph, N100%10000m1006hPa90%
30-Jun-2024 03:00Light Rain9°C7 mph, N100%10000m1008hPa90%
30-Jun-2024 06:00Overcast Clouds9°C2 mph, N100%10000m1009hPa82%
30-Jun-2024 09:00Overcast Clouds10°C0 mph, SE100%10000m1011hPa77%
30-Jun-2024 12:00Overcast Clouds10°C4 mph, SW100%10000m1012hPa77%
30-Jun-2024 15:00Overcast Clouds11°C2 mph, S98%10000m1012hPa77%
30-Jun-2024 18:00Broken Clouds12°C2 mph, SW78%10000m1012hPa72%